PWSweather.com
Personal Weather Stations
Station Observations
KVAGLENALL
West Henrico, Glen Allen, VA 23060-6503

West HenricoGlen Allen, VA 23060-6503

Lat: 37.6554, Lon: -77.5693

Elevation: 273

Station Type: Davis Vantage Pro II

www.glenallenweather.com

High Low Average
Temperature 53.1°F11.7°C 17.6°F-8.0°C 35.2°F1.8°C
Dew Point 46.2°F7.9°C 5.3°F-14.8°C 21.3°F-5.9°C
Winds 13.0 mph 20.9 kmh Calm Calm 5.0 mph SW8.0 kmh SW
Wind Gusts 20.2 mph32.5 kmh -- 9.0 mph14.5 kmh
Humidity 93% 33% 60%
Pressure 30.48 in1032.2 mb 29.86 in1011.2 mb -
Precipitation 0.00 in0.0 mm - -
Hour Temp Dew Point Humidity Winds Wind Gusts Pressure Precip Precip Rate Daily Precip Total
12:00 AM 52.7°F11.5°C 45.7°F7.6°C 77% 3.0 mph WSW4.8 kmh WSW 6.1 mph9.8 kmh 29.86 in1011.2 mb 0.00 in0.0 mm 0.00 in0.0 mm 0.00 in0.0 mm
12:15 AM 53.1°F11.7°C 45.7°F7.6°C 76% 2.0 mph W3.2 kmh W 15.1 mph24.3 kmh 29.87 in1011.5 mb 0.00 in0.0 mm 0.00 in0.0 mm 0.00 in0.0 mm
12:30 AM 51.5°F10.8°C 46.2°F7.9°C 82% 3.0 mph NNE4.8 kmh NNE 4.0 mph6.4 kmh 29.88 in1011.9 mb 0.01 in0.3 mm 0.04 in1.0 mm 0.01 in0.3 mm
12:45 AM 48.9°F9.4°C 43.4°F6.3°C 81% 3.0 mph NNE4.8 kmh NNE 9.1 mph14.6 kmh 29.90 in1012.5 mb 0.02 in0.5 mm 0.04 in1.0 mm 0.02 in0.5 mm
01:00 AM 46.7°F8.2°C 42.8°F6.0°C 86% 4.0 mph NW6.4 kmh NW 7.1 mph11.4 kmh 29.92 in1013.2 mb 0.02 in0.5 mm 0.00 in0.0 mm 0.02 in0.5 mm
01:15 AM 45.4°F7.4°C 42.1°F5.6°C 88% 4.0 mph NW6.4 kmh NW 13.1 mph21.1 kmh 29.94 in1013.9 mb 0.05 in1.3 mm 0.12 in3.0 mm 0.05 in1.3 mm
01:30 AM 44.3°F6.8°C 41.6°F5.3°C 90% 4.0 mph N6.4 kmh N 8.1 mph13.0 kmh 29.94 in1013.9 mb 0.07 in1.8 mm 0.08 in2.0 mm 0.07 in1.8 mm
01:45 AM 43.9°F6.6°C 41.5°F5.3°C 91% 4.0 mph NNW6.4 kmh NNW 9.1 mph14.6 kmh 29.94 in1013.9 mb 0.08 in2.0 mm 0.04 in1.0 mm 0.08 in2.0 mm
02:00 AM 43.4°F6.3°C 41.0°F5.0°C 91% 6.0 mph N9.7 kmh N 8.1 mph13.0 kmh 29.93 in1013.5 mb 0.07 in1.8 mm 0.00 in0.0 mm 0.08 in2.0 mm
02:15 AM 43.1°F6.2°C 41.0°F5.0°C 92% 2.0 mph NNW3.2 kmh NNW 4.0 mph6.4 kmh 29.95 in1014.2 mb 0.08 in2.0 mm 0.04 in1.0 mm 0.09 in2.3 mm
02:30 AM 42.7°F5.9°C 40.6°F4.8°C 92% 1.0 mph NW1.6 kmh NW 5.1 mph8.2 kmh 29.97 in1014.9 mb 0.02 in0.5 mm 0.00 in0.0 mm 0.09 in2.3 mm
02:45 AM 42.4°F5.8°C 40.3°F4.6°C 92% 1.0 mph NW1.6 kmh NW 4.0 mph6.4 kmh 29.97 in1014.9 mb 0.02 in0.5 mm 0.00 in0.0 mm 0.09 in2.3 mm
03:00 AM 42.0°F5.6°C 39.9°F4.4°C 92% 2.0 mph N3.2 kmh N 2.0 mph3.2 kmh 29.98 in1015.2 mb 0.02 in0.5 mm 0.00 in0.0 mm 0.09 in2.3 mm
03:15 AM 41.6°F5.3°C 39.7°F4.3°C 93% 3.0 mph NNW4.8 kmh NNW 3.0 mph4.8 kmh 29.98 in1015.2 mb 0.02 in0.5 mm 0.00 in0.0 mm 0.09 in2.3 mm
03:30 AM 41.3°F5.2°C 39.2°F4.0°C 92% 1.0 mph N1.6 kmh N 1.0 mph1.6 kmh 30.00 in1015.9 mb 0.01 in0.3 mm 0.00 in0.0 mm 0.09 in2.3 mm
03:45 AM 41.2°F5.1°C 39.3°F4.1°C 93% Calm Calm -- 29.99 in1015.6 mb 0.01 in0.3 mm 0.00 in0.0 mm 0.09 in2.3 mm
04:00 AM 41.1°F5.1°C 39.2°F4.0°C 93% 2.0 mph SSW3.2 kmh SSW 3.0 mph4.8 kmh 30.00 in1015.9 mb 0.00 in0.0 mm 0.00 in0.0 mm 0.09 in2.3 mm
04:15 AM 41.0°F5.0°C 38.9°F3.8°C 92% Calm Calm 2.0 mph3.2 kmh 29.98 in1015.2 mb 0.00 in0.0 mm 0.00 in0.0 mm 0.09 in2.3 mm
04:30 AM 40.7°F4.8°C 38.6°F3.7°C 92% 3.0 mph N4.8 kmh N 3.0 mph4.8 kmh 29.98 in1015.2 mb 0.00 in0.0 mm 0.00 in0.0 mm 0.09 in2.3 mm
04:45 AM 40.6°F4.8°C 37.9°F3.3°C 90% 7.0 mph NW11.3 kmh NW 7.1 mph11.4 kmh 29.98 in1015.2 mb 0.00 in0.0 mm 0.00 in0.0 mm 0.09 in2.3 mm
05:00 AM 40.5°F4.7°C 36.7°F2.6°C 86% Calm Calm 2.0 mph3.2 kmh 30.00 in1015.9 mb 0.00 in0.0 mm 0.00 in0.0 mm 0.09 in2.3 mm
05:15 AM 40.2°F4.6°C 36.7°F2.6°C 87% Calm Calm 2.0 mph3.2 kmh 29.99 in1015.6 mb 0.00 in0.0 mm 0.00 in0.0 mm 0.09 in2.3 mm
05:30 AM 40.2°F4.6°C 36.7°F2.6°C 87% Calm Calm -- 29.99 in1015.6 mb 0.00 in0.0 mm 0.00 in0.0 mm 0.09 in2.3 mm
05:45 AM 39.6°F4.2°C 36.6°F2.6°C 89% 3.0 mph SSW4.8 kmh SSW 3.0 mph4.8 kmh 30.00 in1015.9 mb 0.00 in0.0 mm 0.00 in0.0 mm 0.09 in2.3 mm
06:00 AM 39.6°F4.2°C 36.6°F2.6°C 89% 3.0 mph SW4.8 kmh SW 3.0 mph4.8 kmh 30.01 in1016.3 mb 0.00 in0.0 mm 0.00 in0.0 mm 0.09 in2.3 mm
06:15 AM 39.3°F4.1°C 36.3°F2.4°C 89% 1.0 mph W1.6 kmh W 1.0 mph1.6 kmh 30.01 in1016.3 mb 0.00 in0.0 mm 0.00 in0.0 mm 0.09 in2.3 mm
06:30 AM 39.0°F3.9°C 36.3°F2.4°C 90% Calm Calm -- 30.01 in1016.3 mb 0.00 in0.0 mm 0.00 in0.0 mm 0.09 in2.3 mm
06:45 AM 38.8°F3.8°C 36.1°F2.3°C 90% 1.0 mph SSW1.6 kmh SSW 2.0 mph3.2 kmh 30.03 in1016.9 mb 0.00 in0.0 mm 0.00 in0.0 mm 0.09 in2.3 mm
07:00 AM 38.6°F3.7°C 35.9°F2.2°C 90% 1.0 mph SW1.6 kmh SW 4.0 mph6.4 kmh 30.02 in1016.6 mb 0.00 in0.0 mm 0.00 in0.0 mm 0.09 in2.3 mm
07:15 AM 38.5°F3.6°C 36.1°F2.3°C 91% 2.0 mph NW3.2 kmh NW 4.0 mph6.4 kmh 30.03 in1016.9 mb 0.00 in0.0 mm 0.00 in0.0 mm 0.09 in2.3 mm
07:30 AM 39.5°F4.2°C 35.7°F2.1°C 86% 1.0 mph WNW1.6 kmh WNW 8.1 mph13.0 kmh 30.05 in1017.6 mb 0.00 in0.0 mm 0.00 in0.0 mm 0.09 in2.3 mm
07:45 AM 39.5°F4.2°C 33.2°F0.7°C 78% 3.0 mph NW4.8 kmh NW 18.2 mph29.3 kmh 30.07 in1018.3 mb 0.00 in0.0 mm 0.00 in0.0 mm 0.09 in2.3 mm
08:00 AM 39.0°F3.9°C 31.4°F-0.3°C 74% 2.0 mph NW3.2 kmh NW 7.1 mph11.4 kmh 30.07 in1018.3 mb 0.00 in0.0 mm 0.00 in0.0 mm 0.09 in2.3 mm
08:15 AM 38.5°F3.6°C 29.6°F-1.3°C 70% 8.0 mph E12.9 kmh E 8.1 mph13.0 kmh 30.08 in1018.6 mb 0.00 in0.0 mm 0.00 in0.0 mm 0.09 in2.3 mm
08:30 AM 38.4°F3.6°C 28.4°F-2.0°C 67% 7.0 mph NW11.3 kmh NW 8.1 mph13.0 kmh 30.10 in1019.3 mb 0.00 in0.0 mm 0.00 in0.0 mm 0.09 in2.3 mm
08:45 AM 38.5°F3.6°C 28.9°F-1.7°C 68% 10.0 mph WNW16.1 kmh WNW 10.1 mph16.3 kmh 30.11 in1019.6 mb 0.00 in0.0 mm 0.00 in0.0 mm 0.09 in2.3 mm
09:00 AM 38.1°F3.4°C 25.5°F-3.6°C 60% 6.0 mph NW9.7 kmh NW 11.1 mph17.9 kmh 30.12 in1020.0 mb 0.00 in0.0 mm 0.00 in0.0 mm 0.09 in2.3 mm
09:15 AM 37.1°F2.8°C 22.9°F-5.1°C 56% 8.0 mph WNW12.9 kmh WNW 12.1 mph19.5 kmh 30.14 in1020.7 mb 0.00 in0.0 mm 0.00 in0.0 mm 0.09 in2.3 mm
09:30 AM 38.6°F3.7°C 24.3°F-4.3°C 56% 2.0 mph NW3.2 kmh NW 10.1 mph16.3 kmh 30.14 in1020.7 mb 0.00 in0.0 mm 0.00 in0.0 mm 0.09 in2.3 mm
09:45 AM 39.4°F4.1°C 23.7°F-4.6°C 53% 12.0 mph NW19.3 kmh NW 13.1 mph21.1 kmh 30.15 in1021.0 mb 0.00 in0.0 mm 0.00 in0.0 mm 0.09 in2.3 mm
10:00 AM 39.4°F4.1°C 22.3°F-5.4°C 50% 10.0 mph W16.1 kmh W 11.1 mph17.9 kmh 30.16 in1021.3 mb 0.00 in0.0 mm 0.00 in0.0 mm 0.09 in2.3 mm
10:15 AM 39.4°F4.1°C 21.8°F-5.7°C 49% 4.0 mph W6.4 kmh W 14.1 mph22.7 kmh 30.17 in1021.7 mb 0.00 in0.0 mm 0.00 in0.0 mm 0.09 in2.3 mm
10:30 AM 39.6°F4.2°C 22.5°F-5.3°C 50% 6.0 mph NNE9.7 kmh NNE 18.2 mph29.3 kmh 30.17 in1021.7 mb 0.00 in0.0 mm 0.00 in0.0 mm 0.09 in2.3 mm
10:45 AM 39.7°F4.3°C 20.1°F-6.6°C 45% 12.0 mph NW19.3 kmh NW 16.2 mph26.1 kmh 30.19 in1022.4 mb 0.00 in0.0 mm 0.00 in0.0 mm 0.09 in2.3 mm
11:00 AM 39.0°F3.9°C 18.4°F-7.6°C 43% 5.0 mph NW8.0 kmh NW 10.1 mph16.3 kmh 30.19 in1022.4 mb 0.00 in0.0 mm 0.00 in0.0 mm 0.09 in2.3 mm
11:15 AM 38.6°F3.7°C 16.9°F-8.4°C 41% 8.0 mph NW12.9 kmh NW 16.2 mph26.1 kmh 30.20 in1022.7 mb 0.00 in0.0 mm 0.00 in0.0 mm 0.09 in2.3 mm
11:30 AM 39.1°F3.9°C 18.0°F-7.8°C 42% 9.0 mph WSW14.5 kmh WSW 14.1 mph22.7 kmh 30.20 in1022.7 mb 0.00 in0.0 mm 0.00 in0.0 mm 0.09 in2.3 mm
11:45 AM 38.6°F3.7°C 16.9°F-8.4°C 41% 13.0 mph WSW20.9 kmh WSW 16.2 mph26.1 kmh 30.20 in1022.7 mb 0.00 in0.0 mm 0.00 in0.0 mm 0.09 in2.3 mm
12:00 PM 38.5°F3.6°C 16.9°F-8.4°C 41% 9.0 mph NNW14.5 kmh NNW 14.1 mph22.7 kmh 30.20 in1022.7 mb 0.00 in0.0 mm 0.00 in0.0 mm 0.09 in2.3 mm
12:15 PM 38.6°F3.7°C 15.2°F-9.3°C 38% 9.0 mph N14.5 kmh N 20.2 mph32.5 kmh 30.21 in1023.0 mb 0.00 in0.0 mm 0.00 in0.0 mm 0.09 in2.3 mm
12:30 PM 38.7°F3.7°C 14.7°F-9.6°C 37% 5.0 mph NW8.0 kmh NW 14.1 mph22.7 kmh 30.20 in1022.7 mb 0.00 in0.0 mm 0.00 in0.0 mm 0.09 in2.3 mm
12:45 PM 39.1°F3.9°C 14.4°F-9.8°C 36% 2.0 mph NNW3.2 kmh NNW 16.2 mph26.1 kmh 30.20 in1022.7 mb 0.00 in0.0 mm 0.00 in0.0 mm 0.09 in2.3 mm
01:00 PM 38.4°F3.6°C 14.4°F-9.8°C 37% 7.0 mph NW11.3 kmh NW 11.1 mph17.9 kmh 30.20 in1022.7 mb 0.00 in0.0 mm 0.00 in0.0 mm 0.09 in2.3 mm
01:15 PM 39.3°F4.1°C 14.0°F-10.0°C 35% 6.0 mph SW9.7 kmh SW 16.2 mph26.1 kmh 30.20 in1022.7 mb 0.00 in0.0 mm 0.00 in0.0 mm 0.09 in2.3 mm
01:30 PM 38.7°F3.7°C 12.8°F-10.7°C 34% 9.0 mph NNW14.5 kmh NNW 14.1 mph22.7 kmh 30.20 in1022.7 mb 0.00 in0.0 mm 0.00 in0.0 mm 0.09 in2.3 mm
01:45 PM 39.0°F3.9°C 13.0°F-10.6°C 34% 2.0 mph WSW3.2 kmh WSW 6.1 mph9.8 kmh 30.21 in1023.0 mb 0.00 in0.0 mm 0.00 in0.0 mm 0.09 in2.3 mm
02:00 PM 38.4°F3.6°C 12.5°F-10.8°C 34% 5.0 mph NNW8.0 kmh NNW 13.1 mph21.1 kmh 30.21 in1023.0 mb 0.00 in0.0 mm 0.00 in0.0 mm 0.09 in2.3 mm
02:15 PM 38.3°F3.5°C 12.4°F-10.9°C 34% 8.0 mph NNW12.9 kmh NNW 13.1 mph21.1 kmh 30.21 in1023.0 mb 0.00 in0.0 mm 0.00 in0.0 mm 0.09 in2.3 mm
02:30 PM 38.4°F3.6°C 13.8°F-10.1°C 36% 12.0 mph N19.3 kmh N 19.2 mph30.9 kmh 30.22 in1023.4 mb 0.00 in0.0 mm 0.00 in0.0 mm 0.09 in2.3 mm
02:45 PM 37.1°F2.8°C 12.0°F-11.1°C 35% 3.0 mph W4.8 kmh W 10.1 mph16.3 kmh 30.23 in1023.7 mb 0.00 in0.0 mm 0.00 in0.0 mm 0.09 in2.3 mm
03:00 PM 37.0°F2.8°C 11.9°F-11.2°C 35% 8.0 mph NNW12.9 kmh NNW 12.1 mph19.5 kmh 30.24 in1024.0 mb 0.00 in0.0 mm 0.00 in0.0 mm 0.09 in2.3 mm
03:15 PM 35.6°F2.0°C 10.0°F-12.2°C 34% 11.0 mph NW17.7 kmh NW 15.1 mph24.3 kmh 30.25 in1024.4 mb 0.00 in0.0 mm 0.00 in0.0 mm 0.09 in2.3 mm
03:30 PM 35.0°F1.7°C 8.8°F-12.9°C 33% 6.0 mph WNW9.7 kmh WNW 13.1 mph21.1 kmh 30.26 in1024.7 mb 0.00 in0.0 mm 0.00 in0.0 mm 0.09 in2.3 mm
03:45 PM 34.1°F1.2°C 8.0°F-13.3°C 33% 11.0 mph N17.7 kmh N 15.1 mph24.3 kmh 30.27 in1025.1 mb 0.00 in0.0 mm 0.00 in0.0 mm 0.09 in2.3 mm
04:00 PM 33.7°F0.9°C 8.3°F-13.2°C 34% 6.0 mph WNW9.7 kmh WNW 10.1 mph16.3 kmh 30.29 in1025.7 mb 0.00 in0.0 mm 0.00 in0.0 mm 0.09 in2.3 mm
04:15 PM 33.1°F0.6°C 7.1°F-13.8°C 33% 11.0 mph NW17.7 kmh NW 15.1 mph24.3 kmh 30.29 in1025.7 mb 0.00 in0.0 mm 0.00 in0.0 mm 0.09 in2.3 mm
04:30 PM 32.5°F0.3°C 7.9°F-13.4°C 35% 4.0 mph NW6.4 kmh NW 19.2 mph30.9 kmh 30.30 in1026.1 mb 0.00 in0.0 mm 0.00 in0.0 mm 0.09 in2.3 mm
04:45 PM 31.4°F-0.3°C 7.5°F-13.6°C 36% 8.0 mph N12.9 kmh N 9.1 mph14.6 kmh 30.30 in1026.1 mb 0.00 in0.0 mm 0.00 in0.0 mm 0.09 in2.3 mm
05:00 PM 30.7°F-0.7°C 5.6°F-14.7°C 34% 4.0 mph NW6.4 kmh NW 12.1 mph19.5 kmh 30.31 in1026.4 mb 0.00 in0.0 mm 0.00 in0.0 mm 0.09 in2.3 mm
05:15 PM 29.9°F-1.2°C 5.5°F-14.7°C 35% 4.0 mph NW6.4 kmh NW 9.1 mph14.6 kmh 30.32 in1026.8 mb 0.00 in0.0 mm 0.00 in0.0 mm 0.09 in2.3 mm
05:30 PM 29.3°F-1.5°C 6.8°F-14.0°C 38% 3.0 mph N4.8 kmh N 9.1 mph14.6 kmh 30.33 in1027.1 mb 0.00 in0.0 mm 0.00 in0.0 mm 0.09 in2.3 mm
05:45 PM 28.5°F-1.9°C 7.3°F-13.7°C 40% 2.0 mph N3.2 kmh N 8.1 mph13.0 kmh 30.34 in1027.4 mb 0.00 in0.0 mm 0.00 in0.0 mm 0.09 in2.3 mm
06:00 PM 28.0°F-2.2°C 8.4°F-13.1°C 43% 9.0 mph NE14.5 kmh NE 11.1 mph17.9 kmh 30.35 in1027.8 mb 0.00 in0.0 mm 0.00 in0.0 mm 0.09 in2.3 mm
06:15 PM 27.2°F-2.7°C 8.2°F-13.2°C 44% 8.0 mph NNW12.9 kmh NNW 11.1 mph17.9 kmh 30.36 in1028.1 mb 0.00 in0.0 mm 0.00 in0.0 mm 0.09 in2.3 mm
06:30 PM 26.4°F-3.1°C 7.5°F-13.6°C 44% 4.0 mph NE6.4 kmh NE 8.1 mph13.0 kmh 30.37 in1028.4 mb 0.00 in0.0 mm 0.00 in0.0 mm 0.09 in2.3 mm
06:45 PM 25.8°F-3.4°C 7.9°F-13.4°C 46% 7.0 mph NE11.3 kmh NE 7.1 mph11.4 kmh 30.38 in1028.8 mb 0.00 in0.0 mm 0.00 in0.0 mm 0.09 in2.3 mm
07:00 PM 25.6°F-3.6°C 7.2°F-13.8°C 45% 7.0 mph NNE11.3 kmh NNE 10.1 mph16.3 kmh 30.39 in1029.1 mb 0.00 in0.0 mm 0.00 in0.0 mm 0.09 in2.3 mm
07:15 PM 25.3°F-3.7°C 7.5°F-13.6°C 46% 8.0 mph NNW12.9 kmh NNW 12.1 mph19.5 kmh 30.40 in1029.5 mb 0.00 in0.0 mm 0.00 in0.0 mm 0.09 in2.3 mm
07:30 PM 24.8°F-4.0°C 6.5°F-14.2°C 45% 8.0 mph N12.9 kmh N 10.1 mph16.3 kmh 30.41 in1029.8 mb 0.00 in0.0 mm 0.00 in0.0 mm 0.09 in2.3 mm
07:45 PM 24.3°F-4.3°C 6.5°F-14.2°C 46% 3.0 mph NW4.8 kmh NW 6.1 mph9.8 kmh 30.41 in1029.8 mb 0.00 in0.0 mm 0.00 in0.0 mm 0.09 in2.3 mm
08:00 PM 24.0°F-4.4°C 6.3°F-14.3°C 46% 7.0 mph NE11.3 kmh NE 14.1 mph22.7 kmh 30.41 in1029.8 mb 0.00 in0.0 mm 0.00 in0.0 mm 0.09 in2.3 mm
08:15 PM 23.4°F-4.8°C 7.1°F-13.8°C 49% Calm Calm 6.1 mph9.8 kmh 30.42 in1030.1 mb 0.00 in0.0 mm 0.00 in0.0 mm 0.09 in2.3 mm
08:30 PM 23.1°F-4.9°C 6.8°F-14.0°C 49% 6.0 mph NW9.7 kmh NW 6.1 mph9.8 kmh 30.42 in1030.1 mb 0.00 in0.0 mm 0.00 in0.0 mm 0.09 in2.3 mm
08:45 PM 22.8°F-5.1°C 6.5°F-14.2°C 49% 6.0 mph N9.7 kmh N 12.1 mph19.5 kmh 30.42 in1030.1 mb 0.00 in0.0 mm 0.00 in0.0 mm 0.09 in2.3 mm
09:00 PM 22.2°F-5.4°C 6.4°F-14.2°C 50% 4.0 mph NNE6.4 kmh NNE 5.1 mph8.2 kmh 30.43 in1030.5 mb 0.00 in0.0 mm 0.00 in0.0 mm 0.09 in2.3 mm
09:15 PM 21.9°F-5.6°C 5.7°F-14.6°C 49% 3.0 mph N4.8 kmh N 5.1 mph8.2 kmh 30.43 in1030.5 mb 0.00 in0.0 mm 0.00 in0.0 mm 0.09 in2.3 mm
09:30 PM 21.6°F-5.8°C 5.4°F-14.8°C 49% 3.0 mph N4.8 kmh N 5.1 mph8.2 kmh 30.43 in1030.5 mb 0.00 in0.0 mm 0.00 in0.0 mm 0.09 in2.3 mm
09:45 PM 21.2°F-6.0°C 5.5°F-14.7°C 50% 3.0 mph NNE4.8 kmh NNE 5.1 mph8.2 kmh 30.43 in1030.5 mb 0.00 in0.0 mm 0.00 in0.0 mm 0.09 in2.3 mm
10:00 PM 20.5°F-6.4°C 5.3°F-14.8°C 51% 3.0 mph N4.8 kmh N 4.0 mph6.4 kmh 30.45 in1031.2 mb 0.00 in0.0 mm 0.00 in0.0 mm 0.09 in2.3 mm
10:15 PM 19.9°F-6.7°C 6.0°F-14.4°C 54% 3.0 mph N4.8 kmh N 3.0 mph4.8 kmh 30.46 in1031.5 mb 0.00 in0.0 mm 0.00 in0.0 mm 0.09 in2.3 mm
10:30 PM 19.0°F-7.2°C 5.9°F-14.5°C 56% Calm Calm 1.0 mph1.6 kmh 30.46 in1031.5 mb 0.00 in0.0 mm 0.00 in0.0 mm 0.09 in2.3 mm
10:45 PM 19.2°F-7.1°C 5.7°F-14.6°C 55% 1.0 mph NNE1.6 kmh NNE 2.0 mph3.2 kmh 30.47 in1031.8 mb 0.00 in0.0 mm 0.00 in0.0 mm 0.09 in2.3 mm
11:00 PM 19.1°F-7.2°C 5.6°F-14.7°C 55% 2.0 mph NNE3.2 kmh NNE 2.0 mph3.2 kmh 30.47 in1031.8 mb 0.00 in0.0 mm 0.00 in0.0 mm 0.09 in2.3 mm
11:15 PM 18.9°F-7.3°C 6.2°F-14.3°C 57% 2.0 mph NNE3.2 kmh NNE 6.1 mph9.8 kmh 30.47 in1031.8 mb 0.00 in0.0 mm 0.00 in0.0 mm 0.09 in2.3 mm
11:30 PM 18.1°F-7.7°C 6.6°F-14.1°C 60% 1.0 mph N1.6 kmh N 2.0 mph3.2 kmh 30.47 in1031.8 mb 0.00 in0.0 mm 0.00 in0.0 mm 0.09 in2.3 mm
11:45 PM 17.6°F-8.0°C 6.4°F-14.2°C 61% 2.0 mph N3.2 kmh N 3.0 mph4.8 kmh 30.48 in1032.2 mb 0.00 in0.0 mm 0.00 in0.0 mm 0.09 in2.3 mm